Time;durP1;ratioP1;P1;durP2;ratioP2;P2;SDS_P1;SDS_P2;PMS_P1;PMS_P2;Temp;Humidity;BMP_temperature;BMP_pressure;BME280_temperature;BME280_humidity;BME280_pressure;Samples;Min_cycle;Max_cycle;Signal;HPM_P1;HPM_P2
2023/04/09 00:01:06;;;;;;;69.82;56.15;;;9.00;99.90;;;;;;5006518;28;20034;-85
2023/04/09 00:03:32;;;;;;;66.80;54.70;;;9.00;99.90;;;;;;5002170;28;20046;-85
2023/04/09 00:05:58;;;;;;;61.83;53.75;;;9.00;99.90;;;;;;5007551;28;20042;-85
2023/04/09 00:08:23;;;;;;;62.03;53.50;;;9.00;99.90;;;;;;5004629;28;20567;-85
2023/04/09 00:10:50;;;;;;;60.35;51.90;;;8.90;99.90;;;;;;5005045;28;20483;-86
2023/04/09 00:13:16;;;;;;;59.17;52.08;;;8.90;99.90;;;;;;5004646;28;20041;-85
2023/04/09 00:15:42;;;;;;;60.78;51.20;;;8.90;99.90;;;;;;5004310;28;20053;-84
2023/04/09 00:18:08;;;;;;;59.75;49.47;;;8.90;99.90;;;;;;5004217;28;20049;-85
2023/04/09 00:20:33;;;;;;;60.70;49.80;;;8.90;99.90;;;;;;5008588;28;20483;-85
2023/04/09 00:22:59;;;;;;;63.75;51.25;;;8.90;99.90;;;;;;5005252;28;20037;-85
2023/04/09 00:25:25;;;;;;;60.30;51.92;;;8.80;99.90;;;;;;4990814;28;20124;-85
2023/04/09 00:27:51;;;;;;;62.03;51.65;;;8.80;99.90;;;;;;5005365;28;20046;-85
2023/04/09 00:30:16;;;;;;;57.70;49.95;;;8.80;99.90;;;;;;5004015;28;20129;-85
2023/04/09 00:32:42;;;;;;;61.85;50.92;;;8.80;99.90;;;;;;5002788;28;20108;-85
2023/04/09 00:35:08;;;;;;;56.95;48.80;;;8.80;99.90;;;;;;5004970;28;20041;-85
2023/04/09 00:37:33;;;;;;;58.85;49.33;;;8.80;99.90;;;;;;4989404;28;20034;-84
2023/04/09 00:39:59;;;;;;;53.60;46.97;;;8.80;99.90;;;;;;5006205;28;20379;-85
2023/04/09 00:42:26;;;;;;;59.85;49.13;;;8.80;99.90;;;;;;4988046;28;20133;-85
2023/04/09 00:44:51;;;;;;;55.55;47.40;;;8.80;99.90;;;;;;5004556;28;20049;-85
2023/04/09 00:47:17;;;;;;;55.60;46.95;;;8.70;99.90;;;;;;5004625;28;20553;-85
2023/04/09 00:49:43;;;;;;;53.20;46.28;;;8.80;99.90;;;;;;5004381;28;20460;-85
2023/04/09 00:52:09;;;;;;;56.65;47.10;;;8.80;99.90;;;;;;5002633;28;20068;-85
2023/04/09 00:54:36;;;;;;;53.75;47.22;;;8.70;99.90;;;;;;5000782;28;20171;-85
2023/04/09 00:57:02;;;;;;;57.58;47.38;;;8.70;99.90;;;;;;5004316;28;20038;-85
2023/04/09 00:59:28;;;;;;;53.05;45.17;;;8.70;99.90;;;;;;5005384;28;20084;-85
2023/04/09 01:01:53;;;;;;;52.63;44.63;;;8.70;99.90;;;;;;5005788;28;20072;-85
2023/04/09 01:04:20;;;;;;;52.97;44.40;;;8.70;99.90;;;;;;5006409;28;20038;-85
2023/04/09 01:06:52;;;;;;;52.00;44.20;;;8.70;99.90;;;;;;5004537;28;20072;-85
2023/04/09 01:09:38;;;;;;;55.95;44.83;;;8.70;99.90;;;;;;5004831;28;20447;-85
2023/04/09 01:12:30;;;;;;;52.00;43.15;;;8.70;99.90;;;;;;5009016;28;20038;-85
2023/04/09 01:15:10;;;;;;;50.45;44.35;;;8.60;99.90;;;;;;5008936;28;20108;-85
2023/04/09 01:17:45;;;;;;;51.08;43.55;;;8.60;99.90;;;;;;5007840;28;20060;-85
2023/04/09 01:20:32;;;;;;;51.72;44.92;;;8.60;99.90;;;;;;5009303;28;20088;-85
2023/04/09 01:23:09;;;;;;;54.28;44.03;;;8.60;99.90;;;;;;5009863;28;20085;-85
2023/04/09 01:25:59;;;;;;;52.55;44.00;;;8.50;99.90;;;;;;5005922;28;20523;-85
2023/04/09 01:28:26;;;;;;;51.75;45.08;;;8.50;99.90;;;;;;5009356;28;20053;-85
2023/04/09 01:30:58;;;;;;;53.28;44.45;;;8.50;99.90;;;;;;5008800;28;20482;-85
2023/04/09 01:33:25;;;;;;;52.88;44.17;;;8.50;99.90;;;;;;5010450;28;20056;-85
2023/04/09 01:35:53;;;;;;;51.42;43.45;;;8.50;99.90;;;;;;5006485;28;20129;-85
2023/04/09 01:38:20;;;;;;;50.42;43.72;;;8.50;99.90;;;;;;5010326;28;20140;-85
2023/04/09 01:40:47;;;;;;;52.35;44.15;;;8.50;99.90;;;;;;4990779;28;20045;-85
2023/04/09 01:43:14;;;;;;;51.85;45.92;;;8.50;99.90;;;;;;5009358;28;20048;-84
2023/04/09 01:45:40;;;;;;;54.33;46.38;;;8.50;99.90;;;;;;5009512;28;20530;-85
2023/04/09 01:48:06;;;;;;;53.58;45.92;;;8.50;99.90;;;;;;5009135;28;20092;-85
2023/04/09 01:50:32;;;;;;;54.80;47.10;;;8.50;99.90;;;;;;5007852;28;20084;-85
2023/04/09 01:53:00;;;;;;;54.45;45.75;;;8.40;99.90;;;;;;5007203;28;20069;-85
2023/04/09 01:55:26;;;;;;;52.25;44.28;;;8.40;99.90;;;;;;5009410;28;20042;-84
2023/04/09 01:57:51;;;;;;;53.17;45.15;;;8.40;99.90;;;;;;5009791;28;20088;-84
2023/04/09 02:00:17;;;;;;;54.28;46.20;;;8.30;99.90;;;;;;5011578;28;20056;-85
2023/04/09 02:02:54;;;;;;;53.15;46.00;;;8.30;99.90;;;;;;5008295;28;20044;-85
2023/04/09 02:05:23;;;;;;;56.90;48.80;;;8.30;99.90;;;;;;5009404;28;20052;-85
2023/04/09 02:07:53;;;;;;;53.03;46.00;;;8.20;99.90;;;;;;5005709;28;20057;-85
2023/04/09 02:10:21;;;;;;;55.83;46.47;;;8.20;99.90;;;;;;5006966;28;20045;-85
2023/04/09 02:12:50;;;;;;;53.72;46.90;;;8.20;99.90;;;;;;5002967;28;20108;-85
2023/04/09 02:15:18;;;;;;;58.22;47.35;;;8.20;99.90;;;;;;5015496;28;20052;-85
2023/04/09 02:17:43;;;;;;;52.10;44.70;;;8.30;99.90;;;;;;5007626;28;20069;-85
2023/04/09 02:20:10;;;;;;;53.85;45.63;;;8.30;99.90;;;;;;5011343;28;20118;-84
2023/04/09 02:22:35;;;;;;;51.70;44.95;;;8.30;99.90;;;;;;5006166;28;20046;-85
2023/04/09 02:25:01;;;;;;;56.53;46.45;;;8.30;99.90;;;;;;5010647;28;20096;-85
2023/04/09 02:27:27;;;;;;;56.05;46.55;;;8.30;99.90;;;;;;5012196;28;20042;-85
2023/04/09 02:29:52;;;;;;;53.50;46.88;;;8.30;99.90;;;;;;4991557;28;20034;-85
2023/04/09 02:32:18;;;;;;;53.05;44.80;;;8.30;99.90;;;;;;5007187;28;20030;-85
2023/04/09 02:34:44;;;;;;;55.35;46.63;;;8.20;99.90;;;;;;5009071;28;20045;-85
2023/04/09 02:37:10;;;;;;;56.38;45.80;;;8.30;99.90;;;;;;5001385;28;20468;-85
2023/04/09 02:39:35;;;;;;;56.30;46.72;;;8.20;99.90;;;;;;4989935;28;20462;-85
2023/04/09 02:42:01;;;;;;;54.13;45.95;;;8.20;99.90;;;;;;4973721;28;20129;-84
2023/04/09 02:44:27;;;;;;;55.03;46.10;;;8.20;99.90;;;;;;4989168;28;20034;-85
2023/04/09 02:46:52;;;;;;;54.70;47.10;;;8.20;99.90;;;;;;4971168;28;20084;-85
2023/04/09 02:49:18;;;;;;;52.00;44.08;;;8.20;99.90;;;;;;4989263;28;20051;-85
2023/04/09 02:51:43;;;;;;;54.97;47.10;;;8.20;99.90;;;;;;4970712;28;20454;-85
2023/04/09 02:54:09;;;;;;;55.97;46.38;;;8.20;99.90;;;;;;4987682;28;20034;-85
2023/04/09 02:56:35;;;;;;;52.45;45.85;;;8.20;99.90;;;;;;4989593;28;20507;-85
2023/04/09 02:59:00;;;;;;;51.15;45.03;;;8.20;99.90;;;;;;4972181;28;20435;-85
2023/04/09 03:01:26;;;;;;;55.85;46.38;;;8.20;99.90;;;;;;4988814;28;20065;-85
2023/04/09 03:03:51;;;;;;;53.05;45.28;;;8.20;99.90;;;;;;4971819;28;20041;-85
2023/04/09 03:06:17;;;;;;;54.33;46.25;;;8.20;99.90;;;;;;4987006;28;20031;-85
2023/04/09 03:08:43;;;;;;;53.35;45.75;;;8.30;99.90;;;;;;4961360;28;20093;-84
2023/04/09 03:11:09;;;;;;;53.25;45.83;;;8.20;99.90;;;;;;4971455;28;20057;-85
2023/04/09 03:13:34;;;;;;;51.97;45.08;;;8.20;99.90;;;;;;4971415;28;20395;-85
2023/04/09 03:16:00;;;;;;;50.70;44.28;;;8.20;99.90;;;;;;4988243;28;20502;-85
2023/04/09 03:18:25;;;;;;;51.90;44.92;;;8.20;99.90;;;;;;4978279;28;20045;-85
2023/04/09 03:20:51;;;;;;;48.72;42.53;;;8.20;99.90;;;;;;4983225;28;20458;-85
2023/04/09 03:23:16;;;;;;;52.13;43.20;;;8.20;99.90;;;;;;4966548;28;20104;-85
2023/04/09 03:25:42;;;;;;;52.88;46.80;;;8.20;99.90;;;;;;4988662;28;20066;-85
2023/04/09 03:28:08;;;;;;;51.22;44.53;;;8.20;99.90;;;;;;4970172;28;20042;-85
2023/04/09 03:30:33;;;;;;;48.78;42.95;;;8.20;99.90;;;;;;4982916;28;20057;-85
2023/04/09 03:32:59;;;;;;;50.75;44.33;;;8.20;99.90;;;;;;4960942;28;20485;-85
2023/04/09 03:35:25;;;;;;;48.30;41.38;;;8.10;99.90;;;;;;4987769;28;20042;-85
2023/04/09 03:37:51;;;;;;;51.75;44.80;;;8.20;99.90;;;;;;4989545;28;20057;-85
2023/04/09 03:40:16;;;;;;;49.40;41.75;;;8.20;99.90;;;;;;4975121;28;20042;-85
2023/04/09 03:42:42;;;;;;;50.35;43.13;;;8.20;99.90;;;;;;4992481;28;20038;-85
2023/04/09 03:45:08;;;;;;;51.72;43.40;;;8.20;99.90;;;;;;4991926;28;20101;-84
2023/04/09 03:47:34;;;;;;;49.10;42.63;;;8.20;99.90;;;;;;4993266;28;20411;-85
2023/04/09 03:50:00;;;;;;;49.97;42.45;;;8.10;99.90;;;;;;4946380;28;20042;-85
2023/04/09 03:52:25;;;;;;;50.53;43.80;;;8.10;99.90;;;;;;4966539;28;20383;-85
2023/04/09 03:54:51;;;;;;;50.42;43.53;;;8.10;99.90;;;;;;4971174;28;20070;-85
2023/04/09 03:57:16;;;;;;;53.05;43.70;;;8.10;99.90;;;;;;4974244;28;20423;-84
2023/04/09 03:59:42;;;;;;;51.90;44.80;;;8.10;99.90;;;;;;4974197;28;20038;-85
2023/04/09 04:02:08;;;;;;;48.70;42.97;;;8.10;99.90;;;;;;4970242;28;20498;-85
2023/04/09 04:04:33;;;;;;;52.00;44.42;;;8.10;99.90;;;;;;4984077;28;20044;-85
2023/04/09 04:06:59;;;;;;;50.22;43.90;;;8.10;99.90;;;;;;4970387;28;20038;-85
2023/04/09 04:09:24;;;;;;;46.30;41.15;;;8.10;99.90;;;;;;4960983;28;20057;-85
2023/04/09 04:11:50;;;;;;;49.83;42.83;;;8.10;99.90;;;;;;4987050;28;20120;-85
2023/04/09 04:14:16;;;;;;;49.22;42.53;;;8.10;99.90;;;;;;4989427;28;20080;-85
2023/04/09 04:16:41;;;;;;;47.75;42.05;;;8.00;99.90;;;;;;4978819;28;20034;-85
2023/04/09 04:19:07;;;;;;;50.45;43.10;;;8.10;99.90;;;;;;4970674;28;20068;-85
2023/04/09 04:21:32;;;;;;;49.22;41.92;;;8.10;99.90;;;;;;4969318;28;20354;-85
2023/04/09 04:23:58;;;;;;;50.88;43.25;;;8.00;99.90;;;;;;4970649;28;20039;-85
2023/04/09 04:26:24;;;;;;;48.08;40.90;;;8.10;99.90;;;;;;4954672;28;20085;-85
2023/04/09 04:28:49;;;;;;;48.30;41.38;;;8.00;99.90;;;;;;4987598;28;20487;-85
2023/04/09 04:31:15;;;;;;;46.25;41.13;;;8.00;99.90;;;;;;4970636;28;20046;-85
2023/04/09 04:33:41;;;;;;;45.65;39.75;;;8.00;99.90;;;;;;4970758;28;20121;-85
2023/04/09 04:36:11;;;;;;;45.35;38.80;;;8.10;99.90;;;;;;4984704;28;20050;-85
2023/04/09 04:38:40;;;;;;;37.80;20.35;;;8.00;99.90;;;;;;4989067;28;20086;-84
2023/04/09 04:41:05;;;;;;;45.47;40.03;;;8.00;99.90;;;;;;4987439;28;20052;-85
2023/04/09 04:43:31;;;;;;;46.55;40.47;;;8.00;99.90;;;;;;4971098;28;20045;-85
2023/04/09 04:45:57;;;;;;;46.78;40.35;;;8.00;99.90;;;;;;4962398;28;20069;-84
2023/04/09 04:48:23;;;;;;;45.45;39.90;;;8.00;99.90;;;;;;4989879;28;20042;-85
2023/04/09 04:50:55;;;;;;;46.55;40.70;;;8.00;99.90;;;;;;4979260;28;20121;-85
2023/04/09 04:53:21;;;;;;;46.10;39.45;;;8.10;99.90;;;;;;4982982;28;20056;-84
2023/04/09 04:55:47;;;;;;;44.80;39.17;;;8.00;99.90;;;;;;4977654;28;20515;-85
2023/04/09 04:58:12;;;;;;;44.47;39.60;;;8.00;99.90;;;;;;4971368;28;20046;-85
2023/04/09 05:00:38;;;;;;;38.58;22.63;;;8.10;99.90;;;;;;4986026;28;20050;-85
2023/04/09 05:03:03;;;;;;;44.15;37.55;;;8.00;99.90;;;;;;4971896;28;20430;-87
2023/04/09 05:05:29;;;;;;;45.38;38.92;;;8.00;99.90;;;;;;5000448;28;20045;-86
2023/04/09 05:07:55;;;;;;;43.10;38.53;;;8.00;99.90;;;;;;4967168;28;20050;-85
2023/04/09 05:10:21;;;;;;;44.63;38.22;;;8.10;99.90;;;;;;4973406;28;20054;-87
2023/04/09 05:12:46;;;;;;;43.45;37.65;;;8.10;99.90;;;;;;4985379;28;20577;-90
2023/04/09 05:15:12;;;;;;;46.60;39.88;;;8.00;99.90;;;;;;4986326;28;20038;-90
2023/04/09 05:17:37;;;;;;;43.50;38.65;;;8.10;99.90;;;;;;4968501;28;20054;-91
2023/04/09 05:20:03;;;;;;;42.45;37.63;;;8.10;99.90;;;;;;4975275;28;20042;-90
2023/04/09 05:22:29;;;;;;;43.80;38.88;;;8.10;99.90;;;;;;4970233;28;20508;-90
2023/04/09 05:24:55;;;;;;;43.40;38.03;;;8.10;99.90;;;;;;4989102;28;20046;-87
2023/04/09 05:27:23;;;;;;;42.60;37.42;;;8.10;99.90;;;;;;4969981;28;20074;-90
2023/04/09 05:29:48;;;;;;;43.90;38.65;;;8.10;99.90;;;;;;4986020;28;20042;-90
2023/04/09 05:32:14;;;;;;;42.47;37.42;;;8.10;99.90;;;;;;4970493;28;20038;-87
2023/04/09 05:34:40;;;;;;;41.28;36.78;;;8.10;99.90;;;;;;4964400;28;20109;-87
2023/04/09 05:37:06;;;;;;;41.30;36.70;;;8.10;99.90;;;;;;4984893;28;20042;-91
2023/04/09 05:39:32;;;;;;;40.97;36.58;;;8.10;99.90;;;;;;4980239;28;20120;-92
2023/04/09 05:41:57;;;;;;;40.10;35.75;;;8.20;99.90;;;;;;4991314;28;20483;-89
2023/04/09 05:44:23;;;;;;;40.35;35.95;;;8.20;99.90;;;;;;5008457;28;20033;-87
2023/04/09 05:46:48;;;;;;;41.53;36.97;;;8.20;99.90;;;;;;5007196;28;20075;-85
2023/04/09 05:49:15;;;;;;;41.92;37.35;;;8.20;99.90;;;;;;5005796;28;20117;-87
2023/04/09 05:51:42;;;;;;;39.95;35.50;;;8.20;99.90;;;;;;5004967;28;20057;-87
2023/04/09 05:54:08;;;;;;;40.80;36.25;;;8.20;99.90;;;;;;5003233;28;20085;-86
2023/04/09 05:56:34;;;;;;;41.25;36.28;;;8.20;99.90;;;;;;5008251;28;20430;-81
2023/04/09 05:58:59;;;;;;;42.20;37.35;;;8.30;99.90;;;;;;5009382;28;20040;-88
2023/04/09 06:01:25;;;;;;;40.15;35.85;;;8.30;99.90;;;;;;5008867;28;20088;-84
2023/04/09 06:03:51;;;;;;;42.35;37.75;;;8.30;99.90;;;;;;5007597;28;20398;-85
2023/04/09 06:06:17;;;;;;;40.50;35.97;;;8.30;99.90;;;;;;5007842;28;20037;-86
2023/04/09 06:08:43;;;;;;;41.13;35.55;;;8.30;99.90;;;;;;5008990;28;20673;-86
2023/04/09 06:11:10;;;;;;;40.72;36.28;;;8.30;99.90;;;;;;5006798;28;20046;-87
2023/04/09 06:13:36;;;;;;;40.53;36.30;;;8.30;99.90;;;;;;5008923;28;20069;-86
2023/04/09 06:16:08;;;;;;;41.22;36.83;;;8.30;99.90;;;;;;5007973;28;20096;-88
2023/04/09 06:18:35;;;;;;;39.83;35.50;;;8.40;99.90;;;;;;5009242;28;20045;-89
2023/04/09 06:21:05;;;;;;;40.40;36.05;;;8.40;99.90;;;;;;5004761;28;20494;-86
2023/04/09 06:23:32;;;;;;;41.22;36.42;;;8.40;99.90;;;;;;5007720;28;20407;-85
2023/04/09 06:25:58;;;;;;;40.00;35.60;;;8.40;99.90;;;;;;5009069;28;20105;-86
2023/04/09 06:28:23;;;;;;;41.75;36.97;;;8.50;99.90;;;;;;5007979;28;20136;-88
2023/04/09 06:30:49;;;;;;;41.08;36.67;;;8.40;99.90;;;;;;5011500;28;20498;-90
2023/04/09 06:33:15;;;;;;;42.72;36.50;;;8.50;99.90;;;;;;5004201;28;20060;-88
2023/04/09 06:35:41;;;;;;;40.50;36.10;;;8.50;99.90;;;;;;5007705;28;20309;-83
2023/04/09 06:38:08;;;;;;;39.67;35.35;;;8.50;99.90;;;;;;5005935;28;20134;-84
2023/04/09 06:40:39;;;;;;;41.33;36.25;;;8.50;99.90;;;;;;5005027;28;20512;-85
2023/04/09 06:43:05;;;;;;;40.83;35.73;;;8.60;99.90;;;;;;5012080;28;20100;-84
2023/04/09 06:45:32;;;;;;;41.13;36.22;;;8.70;99.90;;;;;;5024467;28;20110;-86
2023/04/09 06:47:58;;;;;;;42.65;36.60;;;8.70;99.90;;;;;;5010082;28;20640;-88
2023/04/09 06:50:24;;;;;;;42.67;37.25;;;8.70;99.90;;;;;;4989346;28;20057;-86
2023/04/09 06:52:50;;;;;;;41.15;36.28;;;8.80;99.90;;;;;;5007343;28;20045;-85
2023/04/09 06:55:16;;;;;;;43.17;36.47;;;8.80;99.90;;;;;;5009595;28;20042;-87
2023/04/09 06:57:41;;;;;;;43.13;37.10;;;8.90;99.90;;;;;;5009193;28;20042;-85
2023/04/09 07:00:08;;;;;;;42.05;35.67;;;8.90;99.90;;;;;;5007908;28;20121;-85
2023/04/09 07:02:34;;;;;;;42.60;37.42;;;9.00;99.90;;;;;;5006650;28;20498;-85
2023/04/09 07:05:01;;;;;;;43.35;38.63;;;9.10;99.90;;;;;;5005657;28;20087;-84
2023/04/09 07:07:27;;;;;;;44.42;37.88;;;9.10;99.90;;;;;;5007131;28;20060;-84
2023/04/09 07:09:53;;;;;;;43.85;38.95;;;9.20;99.90;;;;;;5002755;28;20122;-83
2023/04/09 07:12:33;;;;;;;46.15;38.40;;;9.30;99.90;;;;;;4990863;28;20509;-88
2023/04/09 07:15:00;;;;;;;45.08;39.75;;;9.50;99.90;;;;;;5005166;28;20053;-85
2023/04/09 07:17:26;;;;;;;45.15;39.67;;;9.70;99.90;;;;;;5006894;28;20046;-88
2023/04/09 07:19:52;;;;;;;47.17;39.97;;;9.90;99.90;;;;;;5007732;28;20156;-88
2023/04/09 07:22:20;;;;;;;44.88;38.72;;;10.10;99.90;;;;;;5004291;28;20042;-87
2023/04/09 07:24:45;;;;;;;45.15;38.97;;;10.20;99.90;;;;;;5004127;28;20042;-84
2023/04/09 07:27:11;;;;;;;43.05;38.30;;;10.40;99.90;;;;;;5004594;28;20045;-84
2023/04/09 07:29:37;;;;;;;43.17;37.33;;;10.50;99.90;;;;;;5005638;28;20076;-85
2023/04/09 07:32:02;;;;;;;43.42;37.85;;;10.60;99.90;;;;;;5001854;28;20061;-83
2023/04/09 07:34:28;;;;;;;43.05;37.70;;;10.70;99.90;;;;;;5010574;28;20446;-85
2023/04/09 07:36:54;;;;;;;41.35;36.85;;;10.70;99.90;;;;;;5006890;28;20591;-85
2023/04/09 07:39:21;;;;;;;42.65;37.38;;;10.60;99.90;;;;;;5005418;28;20053;-86
2023/04/09 07:41:47;;;;;;;44.63;39.03;;;10.60;99.90;;;;;;5005655;28;20140;-84
2023/04/09 07:44:13;;;;;;;43.28;38.58;;;10.70;99.90;;;;;;5007556;28;20045;-91
2023/04/09 07:46:39;;;;;;;44.80;38.63;;;10.70;99.90;;;;;;5004272;28;20041;-87
2023/04/09 07:49:04;;;;;;;45.08;40.30;;;10.70;99.90;;;;;;5004992;28;20042;-85
2023/04/09 07:51:31;;;;;;;45.58;40.58;;;10.70;99.90;;;;;;5001507;28;20046;-86
2023/04/09 07:53:56;;;;;;;44.08;39.38;;;10.70;99.90;;;;;;5006439;28;20427;-84
2023/04/09 07:56:22;;;;;;;45.58;40.58;;;10.70;99.90;;;;;;5004520;28;20129;-84
2023/04/09 07:58:48;;;;;;;44.28;39.47;;;10.80;99.90;;;;;;5009237;28;20130;-84
2023/04/09 08:01:14;;;;;;;44.17;39.38;;;10.90;99.90;;;;;;5005324;28;20104;-85
2023/04/09 08:03:40;;;;;;;44.35;39.10;;;11.10;99.90;;;;;;5006472;28;20135;-85
2023/04/09 08:06:06;;;;;;;44.25;39.53;;;11.30;99.90;;;;;;5005791;28;20076;-83
2023/04/09 08:08:31;;;;;;;43.75;39.15;;;11.40;99.90;;;;;;5005669;28;20478;-85
2023/04/09 08:10:57;;;;;;;43.33;38.88;;;11.40;99.90;;;;;;5006456;28;20060;-83
2023/04/09 08:13:24;;;;;;;46.08;41.08;;;11.30;99.90;;;;;;5011363;28;20042;-84
2023/04/09 08:15:49;;;;;;;45.55;40.67;;;11.20;99.90;;;;;;5007197;28;20143;-84
2023/04/09 08:18:15;;;;;;;46.60;41.75;;;11.10;99.90;;;;;;5006176;28;20066;-84
2023/04/09 08:20:44;;;;;;;46.35;41.35;;;11.10;99.90;;;;;;5004028;28;20034;-84
2023/04/09 08:23:10;;;;;;;46.40;41.45;;;11.30;99.90;;;;;;5005820;28;20041;-84
2023/04/09 08:25:36;;;;;;;45.63;40.83;;;11.40;99.90;;;;;;5004377;28;20073;-84
2023/04/09 08:28:02;;;;;;;45.90;40.88;;;11.40;99.90;;;;;;5001464;28;20034;-83
2023/04/09 08:30:27;;;;;;;45.17;40.45;;;11.40;99.90;;;;;;5005829;28;20069;-84
2023/04/09 08:32:53;;;;;;;43.95;39.22;;;11.40;99.90;;;;;;5006476;28;20049;-84
2023/04/09 08:35:18;;;;;;;45.30;40.63;;;11.40;99.90;;;;;;5005779;28;20084;-84
2023/04/09 08:37:44;;;;;;;47.00;41.97;;;11.50;99.90;;;;;;4997924;28;20049;-84
2023/04/09 08:40:10;;;;;;;42.63;37.88;;;11.60;99.90;;;;;;5002333;28;20105;-84
2023/04/09 08:42:42;;;;;;;42.85;38.00;;;11.60;99.90;;;;;;5008094;28;20034;-84
2023/04/09 08:45:08;;;;;;;42.00;37.50;;;11.70;99.90;;;;;;5007272;28;20084;-84
2023/04/09 08:47:35;;;;;;;43.75;38.92;;;11.80;99.90;;;;;;5005596;28;20453;-84
2023/04/09 08:50:01;;;;;;;41.90;37.50;;;11.80;99.90;;;;;;5007332;28;20228;-84
2023/04/09 08:52:32;;;;;;;42.78;38.28;;;12.00;99.90;;;;;;5008328;28;20068;-85
2023/04/09 08:54:58;;;;;;;42.65;38.20;;;12.00;99.90;;;;;;5017923;28;20046;-84
2023/04/09 08:57:23;;;;;;;42.30;37.90;;;12.00;99.90;;;;;;5016022;28;20060;-83
2023/04/09 08:59:49;;;;;;;42.55;38.05;;;12.00;99.90;;;;;;5012868;28;20121;-85
2023/04/09 09:02:15;;;;;;;42.65;38.28;;;12.00;99.90;;;;;;5005885;28;20205;-85
2023/04/09 09:04:48;;;;;;;39.50;35.15;;;12.10;99.90;;;;;;5002517;28;20048;-84
2023/04/09 09:07:15;;;;;;;37.53;33.63;;;12.30;99.90;;;;;;5004728;28;20054;-84
2023/04/09 09:09:55;;;;;;;38.50;34.35;;;12.40;99.90;;;;;;5004919;28;20088;-84
2023/04/09 09:12:41;;;;;;;38.95;34.85;;;12.60;99.90;;;;;;5004220;28;20117;-85
2023/04/09 09:15:27;;;;;;;38.15;34.10;;;12.50;99.90;;;;;;5007081;28;20455;-84
2023/04/09 09:17:57;;;;;;;37.35;33.33;;;12.50;99.90;;;;;;5019847;28;20050;-84
2023/04/09 09:20:24;;;;;;;39.88;35.63;;;12.50;99.90;;;;;;5005371;28;20402;-84
2023/04/09 09:22:52;;;;;;;38.00;34.00;;;12.50;99.90;;;;;;5005484;28;20046;-84
2023/04/09 09:25:22;;;;;;;37.00;33.08;;;12.50;99.90;;;;;;5005219;28;20054;-84
2023/04/09 09:27:47;;;;;;;38.53;34.53;;;12.60;99.90;;;;;;5002686;28;20049;-84
2023/04/09 09:30:25;;;;;;;36.88;32.88;;;12.60;99.90;;;;;;5001584;28;20399;-84
2023/04/09 09:33:04;;;;;;;38.15;34.15;;;12.80;99.90;;;;;;5007958;28;20552;-85
2023/04/09 09:35:30;;;;;;;35.58;31.77;;;12.90;99.90;;;;;;5007662;28;20045;-86
2023/04/09 09:38:05;;;;;;;37.40;32.97;;;12.80;99.90;;;;;;4991337;28;20491;-89
2023/04/09 09:40:31;;;;;;;36.80;32.90;;;12.80;99.90;;;;;;4990689;28;20050;-90
2023/04/09 09:42:57;;;;;;;34.70;31.00;;;12.90;99.90;;;;;;4988873;28;20475;-89
2023/04/09 09:45:24;;;;;;;38.03;33.53;;;13.00;99.90;;;;;;4966640;28;20065;-87
2023/04/09 09:47:50;;;;;;;36.83;32.78;;;13.20;99.90;;;;;;4991347;28;20085;-87
2023/04/09 09:50:16;;;;;;;37.25;33.25;;;13.40;99.90;;;;;;4977911;28;20130;-86
2023/04/09 09:52:45;;;;;;;35.53;31.73;;;13.50;99.90;;;;;;4986152;28;20122;-85
2023/04/09 09:55:14;;;;;;;37.45;33.53;;;13.60;99.90;;;;;;4973672;28;20046;-86
2023/04/09 09:57:43;;;;;;;36.50;32.67;;;13.50;99.90;;;;;;4990811;28;20081;-86
2023/04/09 10:00:12;;;;;;;37.47;33.42;;;13.50;99.90;;;;;;4991809;28;20092;-85
2023/04/09 10:02:46;;;;;;;37.67;33.85;;;13.50;99.90;;;;;;4974626;28;20089;-85
2023/04/09 10:05:13;;;;;;;38.47;34.38;;;13.40;99.90;;;;;;4974236;28;20487;-86
2023/04/09 10:07:39;;;;;;;36.78;32.88;;;13.30;99.90;;;;;;4975288;28;20049;-85
2023/04/09 10:10:07;;;;;;;38.08;33.90;;;13.20;99.90;;;;;;4968755;28;20050;-86
2023/04/09 10:12:33;;;;;;;35.63;31.80;;;13.20;99.90;;;;;;4958852;28;20193;-86
2023/04/09 10:15:03;;;;;;;35.22;31.52;;;13.40;99.90;;;;;;4971507;28;20137;-86
2023/04/09 10:17:30;;;;;;;33.90;30.30;;;13.60;99.90;;;;;;4988398;28;20069;-85
2023/04/09 10:20:04;;;;;;;36.35;32.40;;;13.70;99.90;;;;;;4973448;28;20046;-86
2023/04/09 10:22:32;;;;;;;34.75;31.20;;;13.60;99.90;;;;;;4989659;28;20053;-86
2023/04/09 10:24:58;;;;;;;36.35;32.35;;;13.60;99.90;;;;;;4974597;28;20065;-85
2023/04/09 10:27:26;;;;;;;36.70;32.72;;;13.50;99.90;;;;;;4988714;28;20104;-88
2023/04/09 10:29:52;;;;;;;32.15;28.85;;;13.60;99.90;;;;;;4968606;28;20518;-86
2023/04/09 10:32:25;;;;;;;31.52;28.17;;;13.90;99.90;;;;;;4974649;28;20030;-85
2023/04/09 10:34:51;;;;;;;32.92;29.40;;;14.00;99.90;;;;;;4993413;28;20038;-85
2023/04/09 10:37:22;;;;;;;31.60;28.23;;;14.10;99.90;;;;;;4983148;28;20061;-85
2023/04/09 10:39:49;;;;;;;30.10;27.00;;;14.00;99.90;;;;;;5011560;28;20074;-85
2023/04/09 10:42:23;;;;;;;30.55;27.35;;;14.00;99.90;;;;;;5007881;28;20073;-86
2023/04/09 10:45:07;;;;;;;31.35;28.05;;;13.90;99.90;;;;;;5005647;28;20041;-86
2023/04/09 10:47:38;;;;;;;33.00;29.20;;;14.00;99.90;;;;;;5007935;28;20046;-86
2023/04/09 10:50:19;;;;;;;32.92;29.50;;;14.00;99.90;;;;;;5007452;28;20150;-86
2023/04/09 10:52:46;;;;;;;31.58;28.27;;;14.10;99.90;;;;;;5006258;28;20068;-86
2023/04/09 10:55:35;;;;;;;29.65;26.52;;;14.20;99.90;;;;;;5005863;28;20103;-86
2023/04/09 10:58:03;;;;;;;30.73;27.52;;;14.40;99.90;;;;;;5006403;28;20045;-87
2023/04/09 11:00:29;;;;;;;29.90;26.70;;;14.40;99.90;;;;;;5007482;28;20469;-86
2023/04/09 11:03:22;;;;;;;29.35;26.35;;;14.40;99.90;;;;;;5007013;28;20045;-85
2023/04/09 11:05:52;;;;;;;29.75;26.70;;;14.50;99.90;;;;;;5005967;28;20455;-86
2023/04/09 11:08:18;;;;;;;27.70;24.70;;;14.60;99.90;;;;;;5005420;28;20383;-85
2023/04/09 11:10:46;;;;;;;27.88;25.02;;;14.70;99.90;;;;;;5004726;28;20049;-83
2023/04/09 11:13:16;;;;;;;29.98;26.05;;;14.70;99.90;;;;;;5007608;28;20189;-84
2023/04/09 11:15:43;;;;;;;27.27;24.48;;;14.70;99.90;;;;;;5006925;28;20045;-83
2023/04/09 11:18:21;;;;;;;27.75;24.85;;;14.60;99.90;;;;;;5006728;28;20087;-83
2023/04/09 11:20:47;;;;;;;27.20;24.40;;;14.60;99.90;;;;;;5022984;28;20050;-84
2023/04/09 11:23:12;;;;;;;28.45;25.48;;;14.60;99.90;;;;;;5006800;28;20505;-82
2023/04/09 11:25:38;;;;;;;29.02;26.02;;;14.70;99.90;;;;;;5006622;28;20038;-84
2023/04/09 11:28:04;;;;;;;28.67;25.63;;;14.80;99.90;;;;;;5007282;28;20050;-83
2023/04/09 11:30:30;;;;;;;27.48;24.58;;;14.60;99.90;;;;;;5006037;28;20376;-84
2023/04/09 11:32:56;;;;;;;27.15;24.30;;;14.60;99.90;;;;;;5006275;28;20057;-83
2023/04/09 11:35:22;;;;;;;27.42;24.48;;;14.60;99.90;;;;;;5007670;28;20038;-83
2023/04/09 11:37:50;;;;;;;25.90;23.10;;;14.50;99.90;;;;;;4990194;28;20046;-84
2023/04/09 11:40:23;;;;;;;25.63;22.92;;;14.50;99.90;;;;;;4963489;28;20042;-84
2023/04/09 11:42:52;;;;;;;24.67;22.08;;;14.50;99.90;;;;;;4986886;28;20034;-83
2023/04/09 11:45:20;;;;;;;24.10;21.58;;;14.60;99.90;;;;;;4970712;28;20442;-83
2023/04/09 11:47:46;;;;;;;24.90;22.33;;;14.80;99.90;;;;;;4970262;28;20046;-84
2023/04/09 11:50:13;;;;;;;24.50;22.00;;;15.00;99.90;;;;;;4988754;28;20034;-84
2023/04/09 11:52:40;;;;;;;24.33;21.83;;;15.20;99.90;;;;;;4969376;28;20078;-83
2023/04/09 11:55:07;;;;;;;24.33;21.83;;;15.30;99.90;;;;;;4986814;28;20044;-83
2023/04/09 11:57:38;;;;;;;24.73;22.05;;;15.30;99.90;;;;;;4986554;28;20132;-83
2023/04/09 12:00:12;;;;;;;24.70;22.15;;;15.50;99.90;;;;;;4978055;28;20096;-83
2023/04/09 12:02:40;;;;;;;26.15;23.48;;;15.60;99.90;;;;;;4966674;28;20105;-83
2023/04/09 12:05:08;;;;;;;24.83;22.27;;;15.60;99.90;;;;;;4970788;28;20110;-86
2023/04/09 12:07:34;;;;;;;26.17;23.38;;;15.50;99.90;;;;;;4972650;28;20042;-82
2023/04/09 12:10:09;;;;;;;25.55;22.85;;;15.50;99.90;;;;;;4969308;28;20057;-82
2023/04/09 12:12:46;;;;;;;26.60;23.80;;;15.60;99.90;;;;;;4965256;28;20155;-81
2023/04/09 12:15:23;;;;;;;26.30;23.60;;;15.70;99.90;;;;;;4971637;28;20042;-82
2023/04/09 12:17:53;;;;;;;27.20;24.30;;;15.80;99.90;;;;;;4974701;28;20313;-82
2023/04/09 12:20:43;;;;;;;27.60;24.73;;;15.90;99.90;;;;;;4953663;28;20129;-82
2023/04/09 12:23:09;;;;;;;26.20;23.50;;;16.10;99.90;;;;;;4987024;28;20046;-82
2023/04/09 12:25:37;;;;;;;27.20;24.33;;;16.30;99.90;;;;;;4968906;28;20046;-82
2023/04/09 12:28:05;;;;;;;26.73;23.92;;;16.40;99.90;;;;;;4970719;28;20058;-83
2023/04/09 12:30:31;;;;;;;26.85;24.15;;;16.40;99.90;;;;;;4969481;28;20057;-82
2023/04/09 12:32:58;;;;;;;27.00;23.98;;;16.30;99.90;;;;;;4969077;28;20100;-82
2023/04/09 12:35:23;;;;;;;28.23;25.20;;;16.30;99.90;;;;;;4969621;28;20125;-82